sensor_id;sensor_type;location;lat;lon;timestamp;P1;durP1;ratioP1;P2;durP2;ratioP2
17921;SDS011;9086;50.966;3.144;2023-05-27T00:01:08;16.53;;;4.93;;
17921;SDS011;9086;50.966;3.144;2023-05-27T00:03:34;10.30;;;4.03;;
17921;SDS011;9086;50.966;3.144;2023-05-27T00:06:00;13.40;;;4.17;;
17921;SDS011;9086;50.966;3.144;2023-05-27T00:08:26;10.83;;;4.37;;
17921;SDS011;9086;50.966;3.144;2023-05-27T00:10:54;14.10;;;4.73;;
17921;SDS011;9086;50.966;3.144;2023-05-27T00:13:22;12.73;;;4.90;;
17921;SDS011;9086;50.966;3.144;2023-05-27T00:15:49;12.57;;;5.20;;
17921;SDS011;9086;50.966;3.144;2023-05-27T00:18:17;9.27;;;4.30;;
17921;SDS011;9086;50.966;3.144;2023-05-27T00:20:43;15.27;;;4.23;;
17921;SDS011;9086;50.966;3.144;2023-05-27T00:23:09;12.13;;;4.80;;
17921;SDS011;9086;50.966;3.144;2023-05-27T00:25:35;11.37;;;4.93;;
17921;SDS011;9086;50.966;3.144;2023-05-27T00:28:03;14.30;;;4.60;;
17921;SDS011;9086;50.966;3.144;2023-05-27T00:30:29;7.77;;;4.13;;
17921;SDS011;9086;50.966;3.144;2023-05-27T00:32:55;11.37;;;4.40;;
17921;SDS011;9086;50.966;3.144;2023-05-27T00:35:21;13.17;;;5.23;;
17921;SDS011;9086;50.966;3.144;2023-05-27T00:37:49;11.83;;;4.53;;
17921;SDS011;9086;50.966;3.144;2023-05-27T00:40:16;12.37;;;5.10;;
17921;SDS011;9086;50.966;3.144;2023-05-27T00:42:45;13.30;;;5.27;;
17921;SDS011;9086;50.966;3.144;2023-05-27T00:45:11;13.23;;;5.13;;
17921;SDS011;9086;50.966;3.144;2023-05-27T00:47:37;13.53;;;5.23;;
17921;SDS011;9086;50.966;3.144;2023-05-27T00:50:03;9.70;;;4.47;;
17921;SDS011;9086;50.966;3.144;2023-05-27T00:52:35;14.50;;;4.87;;
17921;SDS011;9086;50.966;3.144;2023-05-27T00:55:01;16.37;;;5.03;;
17921;SDS011;9086;50.966;3.144;2023-05-27T00:57:27;10.73;;;4.53;;
17921;SDS011;9086;50.966;3.144;2023-05-27T00:59:56;8.40;;;4.33;;
17921;SDS011;9086;50.966;3.144;2023-05-27T01:02:22;9.97;;;4.30;;
17921;SDS011;9086;50.966;3.144;2023-05-27T01:04:49;10.57;;;4.60;;
17921;SDS011;9086;50.966;3.144;2023-05-27T01:07:17;15.63;;;5.40;;
17921;SDS011;9086;50.966;3.144;2023-05-27T01:10:10;13.77;;;4.80;;
17921;SDS011;9086;50.966;3.144;2023-05-27T01:12:40;15.83;;;5.33;;
17921;SDS011;9086;50.966;3.144;2023-05-27T01:15:11;10.87;;;5.27;;
17921;SDS011;9086;50.966;3.144;2023-05-27T01:17:42;12.00;;;4.50;;
17921;SDS011;9086;50.966;3.144;2023-05-27T01:20:11;13.20;;;5.07;;
17921;SDS011;9086;50.966;3.144;2023-05-27T01:22:40;14.43;;;4.73;;
17921;SDS011;9086;50.966;3.144;2023-05-27T01:25:09;11.93;;;4.53;;
17921;SDS011;9086;50.966;3.144;2023-05-27T01:27:35;8.37;;;5.17;;
17921;SDS011;9086;50.966;3.144;2023-05-27T01:30:07;13.63;;;5.07;;
17921;SDS011;9086;50.966;3.144;2023-05-27T01:32:41;9.10;;;4.43;;
17921;SDS011;9086;50.966;3.144;2023-05-27T01:37:35;16.33;;;5.90;;
17921;SDS011;9086;50.966;3.144;2023-05-27T01:40:05;12.70;;;5.70;;
17921;SDS011;9086;50.966;3.144;2023-05-27T01:42:34;13.80;;;5.13;;
17921;SDS011;9086;50.966;3.144;2023-05-27T01:45:03;12.23;;;5.03;;
17921;SDS011;9086;50.966;3.144;2023-05-27T01:47:33;14.00;;;5.03;;
17921;SDS011;9086;50.966;3.144;2023-05-27T01:50:01;13.93;;;4.83;;
17921;SDS011;9086;50.966;3.144;2023-05-27T01:52:27;17.80;;;5.20;;
17921;SDS011;9086;50.966;3.144;2023-05-27T01:54:53;14.30;;;4.93;;
17921;SDS011;9086;50.966;3.144;2023-05-27T01:57:23;15.53;;;5.43;;
17921;SDS011;9086;50.966;3.144;2023-05-27T01:59:50;14.00;;;5.33;;
17921;SDS011;9086;50.966;3.144;2023-05-27T02:02:20;16.10;;;5.83;;
17921;SDS011;9086;50.966;3.144;2023-05-27T02:04:57;14.47;;;6.17;;
17921;SDS011;9086;50.966;3.144;2023-05-27T02:07:23;14.00;;;5.77;;
17921;SDS011;9086;50.966;3.144;2023-05-27T02:09:52;12.10;;;5.17;;
17921;SDS011;9086;50.966;3.144;2023-05-27T02:12:18;11.67;;;5.50;;
17921;SDS011;9086;50.966;3.144;2023-05-27T02:14:47;9.93;;;5.07;;
17921;SDS011;9086;50.966;3.144;2023-05-27T02:17:14;14.00;;;5.23;;
17921;SDS011;9086;50.966;3.144;2023-05-27T02:19:42;17.20;;;6.20;;
17921;SDS011;9086;50.966;3.144;2023-05-27T02:22:08;11.00;;;5.30;;
17921;SDS011;9086;50.966;3.144;2023-05-27T02:24:34;15.50;;;5.43;;
17921;SDS011;9086;50.966;3.144;2023-05-27T02:27:01;12.10;;;4.77;;
17921;SDS011;9086;50.966;3.144;2023-05-27T02:29:27;18.43;;;5.63;;
17921;SDS011;9086;50.966;3.144;2023-05-27T02:31:53;13.13;;;5.70;;
17921;SDS011;9086;50.966;3.144;2023-05-27T02:34:19;12.33;;;5.20;;
17921;SDS011;9086;50.966;3.144;2023-05-27T02:36:45;13.40;;;5.10;;
17921;SDS011;9086;50.966;3.144;2023-05-27T02:39:16;12.83;;;5.13;;
17921;SDS011;9086;50.966;3.144;2023-05-27T02:41:42;12.57;;;4.70;;
17921;SDS011;9086;50.966;3.144;2023-05-27T02:44:08;16.53;;;5.60;;
17921;SDS011;9086;50.966;3.144;2023-05-27T02:46:34;13.80;;;5.00;;
17921;SDS011;9086;50.966;3.144;2023-05-27T02:49:00;12.70;;;5.50;;
17921;SDS011;9086;50.966;3.144;2023-05-27T02:51:28;13.97;;;5.37;;
17921;SDS011;9086;50.966;3.144;2023-05-27T02:53:56;12.43;;;4.83;;
17921;SDS011;9086;50.966;3.144;2023-05-27T02:56:24;12.17;;;4.53;;
17921;SDS011;9086;50.966;3.144;2023-05-27T02:58:51;15.47;;;4.83;;
17921;SDS011;9086;50.966;3.144;2023-05-27T03:01:17;12.10;;;5.30;;
17921;SDS011;9086;50.966;3.144;2023-05-27T03:03:45;16.67;;;6.73;;
17921;SDS011;9086;50.966;3.144;2023-05-27T03:06:11;10.20;;;5.43;;
17921;SDS011;9086;50.966;3.144;2023-05-27T03:08:37;12.90;;;6.00;;
17921;SDS011;9086;50.966;3.144;2023-05-27T03:11:06;16.60;;;5.60;;
17921;SDS011;9086;50.966;3.144;2023-05-27T03:13:34;15.97;;;5.10;;
17921;SDS011;9086;50.966;3.144;2023-05-27T03:16:01;11.77;;;5.30;;
17921;SDS011;9086;50.966;3.144;2023-05-27T03:18:29;9.47;;;5.20;;
17921;SDS011;9086;50.966;3.144;2023-05-27T03:20:55;13.27;;;5.43;;
17921;SDS011;9086;50.966;3.144;2023-05-27T03:23:27;14.50;;;4.93;;
17921;SDS011;9086;50.966;3.144;2023-05-27T03:25:53;18.13;;;5.30;;
17921;SDS011;9086;50.966;3.144;2023-05-27T03:28:20;18.33;;;4.90;;
17921;SDS011;9086;50.966;3.144;2023-05-27T03:30:46;16.53;;;5.40;;
17921;SDS011;9086;50.966;3.144;2023-05-27T03:33:14;21.00;;;5.70;;
17921;SDS011;9086;50.966;3.144;2023-05-27T03:35:40;16.67;;;5.97;;
17921;SDS011;9086;50.966;3.144;2023-05-27T03:38:06;15.97;;;5.43;;
17921;SDS011;9086;50.966;3.144;2023-05-27T03:40:32;17.10;;;6.10;;
17921;SDS011;9086;50.966;3.144;2023-05-27T03:42:58;15.20;;;4.77;;
17921;SDS011;9086;50.966;3.144;2023-05-27T03:45:24;13.20;;;5.23;;
17921;SDS011;9086;50.966;3.144;2023-05-27T03:47:55;15.77;;;5.77;;
17921;SDS011;9086;50.966;3.144;2023-05-27T03:50:21;13.80;;;5.53;;
17921;SDS011;9086;50.966;3.144;2023-05-27T03:52:47;13.73;;;4.80;;
17921;SDS011;9086;50.966;3.144;2023-05-27T03:55:16;15.27;;;5.27;;
17921;SDS011;9086;50.966;3.144;2023-05-27T03:57:42;16.47;;;5.73;;
17921;SDS011;9086;50.966;3.144;2023-05-27T04:00:08;18.93;;;6.23;;
17921;SDS011;9086;50.966;3.144;2023-05-27T04:02:38;15.70;;;6.10;;
17921;SDS011;9086;50.966;3.144;2023-05-27T04:05:04;16.33;;;5.93;;
17921;SDS011;9086;50.966;3.144;2023-05-27T04:07:30;11.63;;;5.47;;
17921;SDS011;9086;50.966;3.144;2023-05-27T04:09:57;12.43;;;5.30;;
17921;SDS011;9086;50.966;3.144;2023-05-27T04:12:23;15.10;;;5.73;;
17921;SDS011;9086;50.966;3.144;2023-05-27T04:14:53;15.67;;;5.57;;
17921;SDS011;9086;50.966;3.144;2023-05-27T04:17:24;14.77;;;5.97;;
17921;SDS011;9086;50.966;3.144;2023-05-27T04:19:51;17.20;;;5.17;;
17921;SDS011;9086;50.966;3.144;2023-05-27T04:22:21;16.87;;;5.33;;
17921;SDS011;9086;50.966;3.144;2023-05-27T04:24:47;16.37;;;6.47;;
17921;SDS011;9086;50.966;3.144;2023-05-27T04:27:17;15.30;;;6.30;;
17921;SDS011;9086;50.966;3.144;2023-05-27T04:29:45;13.60;;;5.40;;
17921;SDS011;9086;50.966;3.144;2023-05-27T04:32:12;17.77;;;6.40;;
17921;SDS011;9086;50.966;3.144;2023-05-27T04:34:38;13.60;;;5.77;;
17921;SDS011;9086;50.966;3.144;2023-05-27T04:37:13;15.10;;;6.17;;
17921;SDS011;9086;50.966;3.144;2023-05-27T04:39:41;14.83;;;5.50;;
17921;SDS011;9086;50.966;3.144;2023-05-27T04:42:10;16.70;;;6.20;;
17921;SDS011;9086;50.966;3.144;2023-05-27T04:44:37;15.90;;;5.40;;
17921;SDS011;9086;50.966;3.144;2023-05-27T04:47:06;11.17;;;5.70;;
17921;SDS011;9086;50.966;3.144;2023-05-27T04:49:35;13.90;;;6.30;;
17921;SDS011;9086;50.966;3.144;2023-05-27T04:52:01;17.00;;;6.03;;
17921;SDS011;9086;50.966;3.144;2023-05-27T04:54:27;14.80;;;5.87;;
17921;SDS011;9086;50.966;3.144;2023-05-27T04:56:54;14.07;;;6.40;;
17921;SDS011;9086;50.966;3.144;2023-05-27T04:59:25;13.07;;;5.13;;
17921;SDS011;9086;50.966;3.144;2023-05-27T05:02:10;14.57;;;6.00;;
17921;SDS011;9086;50.966;3.144;2023-05-27T05:04:46;11.47;;;5.83;;
17921;SDS011;9086;50.966;3.144;2023-05-27T05:07:13;9.40;;;5.20;;
17921;SDS011;9086;50.966;3.144;2023-05-27T05:09:41;14.73;;;5.33;;
17921;SDS011;9086;50.966;3.144;2023-05-27T05:12:09;13.97;;;5.87;;
17921;SDS011;9086;50.966;3.144;2023-05-27T05:14:35;14.77;;;6.50;;
17921;SDS011;9086;50.966;3.144;2023-05-27T05:17:01;15.57;;;6.10;;
17921;SDS011;9086;50.966;3.144;2023-05-27T05:19:27;13.47;;;6.43;;
17921;SDS011;9086;50.966;3.144;2023-05-27T05:21:53;13.53;;;6.80;;
17921;SDS011;9086;50.966;3.144;2023-05-27T05:24:20;13.00;;;6.30;;
17921;SDS011;9086;50.966;3.144;2023-05-27T05:26:50;14.60;;;6.03;;
17921;SDS011;9086;50.966;3.144;2023-05-27T05:29:18;18.20;;;6.07;;
17921;SDS011;9086;50.966;3.144;2023-05-27T05:31:44;12.03;;;5.97;;
17921;SDS011;9086;50.966;3.144;2023-05-27T05:34:14;14.23;;;6.20;;
17921;SDS011;9086;50.966;3.144;2023-05-27T05:36:40;14.90;;;6.33;;
17921;SDS011;9086;50.966;3.144;2023-05-27T05:39:10;15.67;;;5.40;;
17921;SDS011;9086;50.966;3.144;2023-05-27T05:41:36;18.93;;;7.00;;
17921;SDS011;9086;50.966;3.144;2023-05-27T05:44:02;16.53;;;7.00;;
17921;SDS011;9086;50.966;3.144;2023-05-27T05:46:28;12.20;;;6.23;;
17921;SDS011;9086;50.966;3.144;2023-05-27T05:48:55;14.73;;;6.40;;
17921;SDS011;9086;50.966;3.144;2023-05-27T05:51:21;13.00;;;5.97;;
17921;SDS011;9086;50.966;3.144;2023-05-27T05:53:47;12.50;;;5.80;;
17921;SDS011;9086;50.966;3.144;2023-05-27T05:56:13;13.50;;;6.20;;
17921;SDS011;9086;50.966;3.144;2023-05-27T05:58:39;11.87;;;5.67;;
17921;SDS011;9086;50.966;3.144;2023-05-27T06:01:05;18.07;;;6.93;;
17921;SDS011;9086;50.966;3.144;2023-05-27T06:03:31;19.23;;;6.63;;
17921;SDS011;9086;50.966;3.144;2023-05-27T06:05:57;16.17;;;6.57;;
17921;SDS011;9086;50.966;3.144;2023-05-27T06:08:23;14.77;;;6.27;;
17921;SDS011;9086;50.966;3.144;2023-05-27T06:10:49;15.10;;;6.30;;
17921;SDS011;9086;50.966;3.144;2023-05-27T06:13:16;14.40;;;6.47;;
17921;SDS011;9086;50.966;3.144;2023-05-27T06:15:45;13.50;;;5.90;;
17921;SDS011;9086;50.966;3.144;2023-05-27T06:18:18;14.63;;;6.87;;
17921;SDS011;9086;50.966;3.144;2023-05-27T06:20:49;11.37;;;5.67;;
17921;SDS011;9086;50.966;3.144;2023-05-27T06:23:15;12.87;;;5.57;;
17921;SDS011;9086;50.966;3.144;2023-05-27T06:25:42;14.40;;;5.20;;
17921;SDS011;9086;50.966;3.144;2023-05-27T06:28:09;18.00;;;6.03;;
17921;SDS011;9086;50.966;3.144;2023-05-27T06:30:36;13.00;;;6.10;;
17921;SDS011;9086;50.966;3.144;2023-05-27T06:33:07;14.13;;;5.40;;
17921;SDS011;9086;50.966;3.144;2023-05-27T06:35:36;15.33;;;6.60;;
17921;SDS011;9086;50.966;3.144;2023-05-27T06:38:06;17.80;;;6.50;;
17921;SDS011;9086;50.966;3.144;2023-05-27T06:40:37;12.70;;;6.33;;
17921;SDS011;9086;50.966;3.144;2023-05-27T06:43:03;13.23;;;5.40;;
17921;SDS011;9086;50.966;3.144;2023-05-27T06:45:29;15.63;;;5.83;;
17921;SDS011;9086;50.966;3.144;2023-05-27T06:47:56;14.03;;;5.57;;
17921;SDS011;9086;50.966;3.144;2023-05-27T06:50:23;12.40;;;6.33;;
17921;SDS011;9086;50.966;3.144;2023-05-27T06:52:49;13.23;;;6.37;;
17921;SDS011;9086;50.966;3.144;2023-05-27T06:55:19;15.07;;;6.23;;
17921;SDS011;9086;50.966;3.144;2023-05-27T06:57:47;12.80;;;6.70;;
17921;SDS011;9086;50.966;3.144;2023-05-27T07:00:13;13.40;;;6.63;;
17921;SDS011;9086;50.966;3.144;2023-05-27T07:02:42;17.90;;;6.83;;
17921;SDS011;9086;50.966;3.144;2023-05-27T07:05:10;15.40;;;6.03;;
17921;SDS011;9086;50.966;3.144;2023-05-27T07:07:36;16.07;;;5.80;;
17921;SDS011;9086;50.966;3.144;2023-05-27T07:10:05;14.87;;;6.47;;
17921;SDS011;9086;50.966;3.144;2023-05-27T07:12:31;13.73;;;5.17;;
17921;SDS011;9086;50.966;3.144;2023-05-27T07:14:57;13.10;;;5.47;;
17921;SDS011;9086;50.966;3.144;2023-05-27T07:17:23;12.40;;;6.37;;
17921;SDS011;9086;50.966;3.144;2023-05-27T07:19:49;15.47;;;6.10;;
17921;SDS011;9086;50.966;3.144;2023-05-27T07:22:15;14.03;;;5.80;;
17921;SDS011;9086;50.966;3.144;2023-05-27T07:24:41;12.70;;;6.10;;
17921;SDS011;9086;50.966;3.144;2023-05-27T07:27:07;13.73;;;5.87;;
17921;SDS011;9086;50.966;3.144;2023-05-27T07:29:33;12.60;;;6.13;;
17921;SDS011;9086;50.966;3.144;2023-05-27T07:32:00;11.90;;;5.53;;
17921;SDS011;9086;50.966;3.144;2023-05-27T07:34:26;11.40;;;6.07;;
17921;SDS011;9086;50.966;3.144;2023-05-27T07:36:52;11.47;;;6.57;;
17921;SDS011;9086;50.966;3.144;2023-05-27T07:39:18;11.33;;;6.20;;
17921;SDS011;9086;50.966;3.144;2023-05-27T07:41:46;14.17;;;5.77;;
17921;SDS011;9086;50.966;3.144;2023-05-27T07:44:14;12.70;;;5.10;;
17921;SDS011;9086;50.966;3.144;2023-05-27T07:46:43;12.07;;;6.50;;
17921;SDS011;9086;50.966;3.144;2023-05-27T07:49:09;19.03;;;7.80;;
17921;SDS011;9086;50.966;3.144;2023-05-27T07:51:35;15.37;;;6.80;;
17921;SDS011;9086;50.966;3.144;2023-05-27T07:54:01;22.57;;;7.23;;
17921;SDS011;9086;50.966;3.144;2023-05-27T07:56:27;13.43;;;6.10;;
17921;SDS011;9086;50.966;3.144;2023-05-27T07:58:55;15.40;;;6.77;;
17921;SDS011;9086;50.966;3.144;2023-05-27T08:01:21;11.43;;;5.47;;
17921;SDS011;9086;50.966;3.144;2023-05-27T08:03:49;11.53;;;6.47;;
17921;SDS011;9086;50.966;3.144;2023-05-27T08:06:16;14.83;;;7.23;;
17921;SDS011;9086;50.966;3.144;2023-05-27T08:08:42;12.97;;;5.50;;
17921;SDS011;9086;50.966;3.144;2023-05-27T08:11:09;11.73;;;5.83;;
17921;SDS011;9086;50.966;3.144;2023-05-27T08:13:35;16.17;;;6.67;;
17921;SDS011;9086;50.966;3.144;2023-05-27T08:16:03;11.67;;;6.23;;
17921;SDS011;9086;50.966;3.144;2023-05-27T08:18:32;7.43;;;4.87;;
17921;SDS011;9086;50.966;3.144;2023-05-27T08:20:58;11.57;;;6.67;;
17921;SDS011;9086;50.966;3.144;2023-05-27T08:23:26;17.27;;;8.07;;
17921;SDS011;9086;50.966;3.144;2023-05-27T08:25:52;12.60;;;6.37;;
17921;SDS011;9086;50.966;3.144;2023-05-27T08:28:18;13.40;;;5.50;;
17921;SDS011;9086;50.966;3.144;2023-05-27T08:30:44;13.13;;;5.63;;
17921;SDS011;9086;50.966;3.144;2023-05-27T08:33:11;10.77;;;5.20;;
17921;SDS011;9086;50.966;3.144;2023-05-27T08:35:40;9.37;;;3.93;;
17921;SDS011;9086;50.966;3.144;2023-05-27T08:38:06;17.27;;;7.80;;
17921;SDS011;9086;50.966;3.144;2023-05-27T08:40:32;11.13;;;6.23;;
17921;SDS011;9086;50.966;3.144;2023-05-27T08:43:00;16.27;;;8.13;;
17921;SDS011;9086;50.966;3.144;2023-05-27T08:45:27;12.37;;;6.60;;
17921;SDS011;9086;50.966;3.144;2023-05-27T08:47:53;13.70;;;6.30;;
17921;SDS011;9086;50.966;3.144;2023-05-27T08:50:20;10.40;;;5.60;;
17921;SDS011;9086;50.966;3.144;2023-05-27T08:52:47;12.60;;;4.77;;
17921;SDS011;9086;50.966;3.144;2023-05-27T08:55:17;13.90;;;6.20;;
17921;SDS011;9086;50.966;3.144;2023-05-27T08:57:49;11.97;;;6.43;;
17921;SDS011;9086;50.966;3.144;2023-05-27T09:00:18;14.77;;;6.97;;
17921;SDS011;9086;50.966;3.144;2023-05-27T09:02:46;16.83;;;7.53;;
17921;SDS011;9086;50.966;3.144;2023-05-27T09:05:13;10.67;;;5.87;;
17921;SDS011;9086;50.966;3.144;2023-05-27T09:07:39;15.43;;;6.90;;
17921;SDS011;9086;50.966;3.144;2023-05-27T09:10:08;16.30;;;7.07;;
17921;SDS011;9086;50.966;3.144;2023-05-27T09:12:36;17.33;;;6.57;;
17921;SDS011;9086;50.966;3.144;2023-05-27T09:15:02;13.10;;;7.00;;
17921;SDS011;9086;50.966;3.144;2023-05-27T09:17:29;11.83;;;6.37;;
17921;SDS011;9086;50.966;3.144;2023-05-27T09:19:55;15.13;;;7.10;;
17921;SDS011;9086;50.966;3.144;2023-05-27T09:24:48;13.80;;;7.13;;
17921;SDS011;9086;50.966;3.144;2023-05-27T09:27:14;16.30;;;6.80;;
17921;SDS011;9086;50.966;3.144;2023-05-27T09:29:40;16.60;;;6.10;;
17921;SDS011;9086;50.966;3.144;2023-05-27T09:32:06;15.37;;;6.67;;
17921;SDS011;9086;50.966;3.144;2023-05-27T09:34:38;16.17;;;6.43;;
17921;SDS011;9086;50.966;3.144;2023-05-27T09:37:04;15.03;;;7.73;;
17921;SDS011;9086;50.966;3.144;2023-05-27T09:39:32;13.80;;;6.77;;
17921;SDS011;9086;50.966;3.144;2023-05-27T09:42:00;12.70;;;5.33;;
17921;SDS011;9086;50.966;3.144;2023-05-27T09:44:29;12.77;;;6.90;;
17921;SDS011;9086;50.966;3.144;2023-05-27T09:46:55;13.93;;;6.90;;
17921;SDS011;9086;50.966;3.144;2023-05-27T09:49:22;10.17;;;5.87;;
17921;SDS011;9086;50.966;3.144;2023-05-27T09:51:52;12.80;;;6.73;;
17921;SDS011;9086;50.966;3.144;2023-05-27T09:54:19;11.40;;;5.88;;
17921;SDS011;9086;50.966;3.144;2023-05-27T09:56:51;11.63;;;6.53;;
17921;SDS011;9086;50.966;3.144;2023-05-27T09:59:19;12.38;;;6.90;;
17921;SDS011;9086;50.966;3.144;2023-05-27T10:01:47;11.45;;;6.53;;
17921;SDS011;9086;50.966;3.144;2023-05-27T10:04:15;13.25;;;7.65;;
17921;SDS011;9086;50.966;3.144;2023-05-27T10:06:41;12.15;;;6.20;;
17921;SDS011;9086;50.966;3.144;2023-05-27T10:09:11;12.93;;;6.78;;
17921;SDS011;9086;50.966;3.144;2023-05-27T10:11:41;15.77;;;7.60;;
17921;SDS011;9086;50.966;3.144;2023-05-27T10:14:07;12.77;;;6.85;;
17921;SDS011;9086;50.966;3.144;2023-05-27T10:16:36;12.35;;;6.63;;
17921;SDS011;9086;50.966;3.144;2023-05-27T10:19:08;12.18;;;6.55;;
17921;SDS011;9086;50.966;3.144;2023-05-27T10:21:41;13.07;;;7.05;;
17921;SDS011;9086;50.966;3.144;2023-05-27T10:24:10;15.55;;;6.80;;
17921;SDS011;9086;50.966;3.144;2023-05-27T10:26:42;12.27;;;6.53;;
17921;SDS011;9086;50.966;3.144;2023-05-27T10:29:09;15.57;;;7.10;;
17921;SDS011;9086;50.966;3.144;2023-05-27T10:34:12;15.32;;;6.88;;
17921;SDS011;9086;50.966;3.144;2023-05-27T10:36:39;14.95;;;6.80;;
17921;SDS011;9086;50.966;3.144;2023-05-27T10:39:12;16.50;;;7.13;;
17921;SDS011;9086;50.966;3.144;2023-05-27T10:44:29;14.02;;;5.38;;
17921;SDS011;9086;50.966;3.144;2023-05-27T10:47:11;14.52;;;7.47;;
17921;SDS011;9086;50.966;3.144;2023-05-27T10:49:45;14.52;;;7.07;;
17921;SDS011;9086;50.966;3.144;2023-05-27T10:52:16;18.10;;;7.15;;
17921;SDS011;9086;50.966;3.144;2023-05-27T10:54:42;21.50;;;8.45;;
17921;SDS011;9086;50.966;3.144;2023-05-27T10:57:10;18.40;;;7.47;;
17921;SDS011;9086;50.966;3.144;2023-05-27T11:02:06;13.90;;;7.35;;
17921;SDS011;9086;50.966;3.144;2023-05-27T11:04:35;13.13;;;7.30;;
17921;SDS011;9086;50.966;3.144;2023-05-27T11:07:05;13.40;;;7.38;;
17921;SDS011;9086;50.966;3.144;2023-05-27T11:09:48;10.70;;;6.95;;
17921;SDS011;9086;50.966;3.144;2023-05-27T11:12:17;15.52;;;7.53;;
17921;SDS011;9086;50.966;3.144;2023-05-27T11:14:43;13.38;;;6.93;;
17921;SDS011;9086;50.966;3.144;2023-05-27T11:17:10;12.55;;;7.10;;
17921;SDS011;9086;50.966;3.144;2023-05-27T11:19:39;13.52;;;6.90;;
17921;SDS011;9086;50.966;3.144;2023-05-27T11:22:05;13.40;;;6.57;;
17921;SDS011;9086;50.966;3.144;2023-05-27T11:24:31;21.25;;;7.53;;
17921;SDS011;9086;50.966;3.144;2023-05-27T11:26:57;13.65;;;7.05;;
17921;SDS011;9086;50.966;3.144;2023-05-27T11:29:23;12.48;;;7.60;;
17921;SDS011;9086;50.966;3.144;2023-05-27T11:31:49;14.43;;;8.15;;
17921;SDS011;9086;50.966;3.144;2023-05-27T11:34:16;17.23;;;6.93;;
17921;SDS011;9086;50.966;3.144;2023-05-27T11:36:48;14.88;;;7.13;;
17921;SDS011;9086;50.966;3.144;2023-05-27T11:39:14;12.48;;;7.25;;
17921;SDS011;9086;50.966;3.144;2023-05-27T11:41:50;14.95;;;7.70;;
17921;SDS011;9086;50.966;3.144;2023-05-27T11:44:17;14.60;;;7.28;;
17921;SDS011;9086;50.966;3.144;2023-05-27T11:46:44;16.05;;;7.50;;
17921;SDS011;9086;50.966;3.144;2023-05-27T11:49:10;22.77;;;7.97;;
17921;SDS011;9086;50.966;3.144;2023-05-27T11:51:38;13.95;;;7.65;;
17921;SDS011;9086;50.966;3.144;2023-05-27T11:54:07;12.48;;;6.60;;
17921;SDS011;9086;50.966;3.144;2023-05-27T11:56:35;15.10;;;7.35;;
17921;SDS011;9086;50.966;3.144;2023-05-27T11:59:01;13.73;;;8.55;;
17921;SDS011;9086;50.966;3.144;2023-05-27T12:01:27;13.10;;;7.70;;
17921;SDS011;9086;50.966;3.144;2023-05-27T12:03:53;13.25;;;7.55;;
17921;SDS011;9086;50.966;3.144;2023-05-27T12:06:21;15.40;;;7.38;;
17921;SDS011;9086;50.966;3.144;2023-05-27T12:08:47;14.13;;;7.65;;
17921;SDS011;9086;50.966;3.144;2023-05-27T12:11:13;13.57;;;7.38;;
17921;SDS011;9086;50.966;3.144;2023-05-27T12:13:41;15.88;;;7.53;;
17921;SDS011;9086;50.966;3.144;2023-05-27T12:16:07;12.48;;;7.57;;
17921;SDS011;9086;50.966;3.144;2023-05-27T12:18:33;15.88;;;7.72;;
17921;SDS011;9086;50.966;3.144;2023-05-27T12:20:59;15.27;;;7.97;;
17921;SDS011;9086;50.966;3.144;2023-05-27T12:23:26;13.18;;;7.65;;
17921;SDS011;9086;50.966;3.144;2023-05-27T12:25:52;12.38;;;7.30;;
17921;SDS011;9086;50.966;3.144;2023-05-27T12:28:18;11.77;;;7.25;;
17921;SDS011;9086;50.966;3.144;2023-05-27T12:30:48;16.00;;;7.53;;
17921;SDS011;9086;50.966;3.144;2023-05-27T12:33:14;19.10;;;9.18;;
17921;SDS011;9086;50.966;3.144;2023-05-27T12:35:40;18.48;;;8.07;;
17921;SDS011;9086;50.966;3.144;2023-05-27T12:38:07;13.85;;;7.70;;
17921;SDS011;9086;50.966;3.144;2023-05-27T12:40:33;14.32;;;7.47;;
17921;SDS011;9086;50.966;3.144;2023-05-27T12:42:59;16.00;;;8.77;;
17921;SDS011;9086;50.966;3.144;2023-05-27T12:45:28;15.50;;;7.90;;
17921;SDS011;9086;50.966;3.144;2023-05-27T12:47:58;17.88;;;8.98;;
17921;SDS011;9086;50.966;3.144;2023-05-27T12:50:25;16.27;;;8.00;;
17921;SDS011;9086;50.966;3.144;2023-05-27T12:52:51;15.80;;;9.23;;
17921;SDS011;9086;50.966;3.144;2023-05-27T12:55:19;16.52;;;8.25;;
17921;SDS011;9086;50.966;3.144;2023-05-27T12:57:50;13.35;;;8.15;;
17921;SDS011;9086;50.966;3.144;2023-05-27T13:00:17;17.15;;;9.38;;
17921;SDS011;9086;50.966;3.144;2023-05-27T13:02:45;15.27;;;9.65;;
17921;SDS011;9086;50.966;3.144;2023-05-27T13:05:14;16.17;;;8.70;;
17921;SDS011;9086;50.966;3.144;2023-05-27T13:07:51;28.77;;;10.30;;
17921;SDS011;9086;50.966;3.144;2023-05-27T13:10:17;15.07;;;9.15;;
17921;SDS011;9086;50.966;3.144;2023-05-27T13:12:46;13.35;;;8.18;;
17921;SDS011;9086;50.966;3.144;2023-05-27T13:15:12;16.38;;;8.90;;
17921;SDS011;9086;50.966;3.144;2023-05-27T13:17:38;15.52;;;9.15;;
17921;SDS011;9086;50.966;3.144;2023-05-27T13:20:06;17.70;;;9.50;;
17921;SDS011;9086;50.966;3.144;2023-05-27T13:22:32;13.18;;;7.78;;
17921;SDS011;9086;50.966;3.144;2023-05-27T13:24:58;11.70;;;7.88;;
17921;SDS011;9086;50.966;3.144;2023-05-27T13:27:26;25.10;;;9.55;;
17921;SDS011;9086;50.966;3.144;2023-05-27T13:29:52;15.63;;;8.23;;
17921;SDS011;9086;50.966;3.144;2023-05-27T13:32:18;20.08;;;8.57;;
17921;SDS011;9086;50.966;3.144;2023-05-27T13:34:45;15.13;;;8.38;;
17921;SDS011;9086;50.966;3.144;2023-05-27T13:37:11;14.80;;;9.27;;
17921;SDS011;9086;50.966;3.144;2023-05-27T13:39:37;15.18;;;9.52;;
17921;SDS011;9086;50.966;3.144;2023-05-27T13:42:08;17.67;;;9.48;;
17921;SDS011;9086;50.966;3.144;2023-05-27T13:44:33;19.30;;;9.90;;
17921;SDS011;9086;50.966;3.144;2023-05-27T13:47:02;23.70;;;9.00;;
17921;SDS011;9086;50.966;3.144;2023-05-27T13:49:31;19.17;;;9.90;;
17921;SDS011;9086;50.966;3.144;2023-05-27T13:52:02;23.92;;;10.52;;
17921;SDS011;9086;50.966;3.144;2023-05-27T13:54:28;16.00;;;9.88;;
17921;SDS011;9086;50.966;3.144;2023-05-27T13:56:54;15.10;;;8.73;;
17921;SDS011;9086;50.966;3.144;2023-05-27T13:59:24;14.02;;;8.57;;
17921;SDS011;9086;50.966;3.144;2023-05-27T14:01:50;15.43;;;8.15;;
17921;SDS011;9086;50.966;3.144;2023-05-27T14:04:19;14.73;;;7.75;;
17921;SDS011;9086;50.966;3.144;2023-05-27T14:06:45;16.75;;;9.23;;
17921;SDS011;9086;50.966;3.144;2023-05-27T14:09:12;15.95;;;9.23;;
17921;SDS011;9086;50.966;3.144;2023-05-27T14:11:38;16.98;;;8.57;;
17921;SDS011;9086;50.966;3.144;2023-05-27T14:14:04;14.48;;;7.95;;
17921;SDS011;9086;50.966;3.144;2023-05-27T14:16:30;29.88;;;9.25;;
17921;SDS011;9086;50.966;3.144;2023-05-27T14:18:56;17.33;;;9.35;;
17921;SDS011;9086;50.966;3.144;2023-05-27T14:21:24;20.95;;;9.23;;
17921;SDS011;9086;50.966;3.144;2023-05-27T14:23:57;17.67;;;9.23;;
17921;SDS011;9086;50.966;3.144;2023-05-27T14:26:26;12.65;;;8.32;;
17921;SDS011;9086;50.966;3.144;2023-05-27T14:28:52;17.60;;;7.53;;
17921;SDS011;9086;50.966;3.144;2023-05-27T14:31:20;16.45;;;7.97;;
17921;SDS011;9086;50.966;3.144;2023-05-27T14:33:49;13.82;;;7.45;;
17921;SDS011;9086;50.966;3.144;2023-05-27T14:36:15;14.73;;;7.15;;
17921;SDS011;9086;50.966;3.144;2023-05-27T14:38:41;13.73;;;7.63;;
17921;SDS011;9086;50.966;3.144;2023-05-27T14:41:07;12.18;;;9.00;;
17921;SDS011;9086;50.966;3.144;2023-05-27T14:43:33;17.58;;;8.68;;
17921;SDS011;9086;50.966;3.144;2023-05-27T14:45:59;17.98;;;8.90;;
17921;SDS011;9086;50.966;3.144;2023-05-27T14:48:25;14.57;;;7.38;;
17921;SDS011;9086;50.966;3.144;2023-05-27T14:50:51;15.25;;;6.60;;
17921;SDS011;9086;50.966;3.144;2023-05-27T14:53:19;16.30;;;6.97;;
17921;SDS011;9086;50.966;3.144;2023-05-27T14:55:45;14.00;;;7.20;;
17921;SDS011;9086;50.966;3.144;2023-05-27T14:58:13;13.40;;;6.85;;
17921;SDS011;9086;50.966;3.144;2023-05-27T15:00:42;17.33;;;7.32;;
17921;SDS011;9086;50.966;3.144;2023-05-27T15:03:09;19.58;;;7.80;;